Time;durP1;ratioP1;P1;durP2;ratioP2;P2;SDS_P1;SDS_P2;PMS_P1;PMS_P2;Temp;Humidity;BMP_temperature;BMP_pressure;BME280_temperature;BME280_humidity;BME280_pressure;Samples;Min_cycle;Max_cycle;Signal;HPM_P1;HPM_P2
2024/02/18 00:04:15;;;;;;;1.08;0.80;;;21.90;49.40;;;;;;10360862;28;20050;-62
2024/02/18 00:09:18;;;;;;;1.02;0.93;;;21.80;49.50;;;;;;10355071;28;20133;-58
2024/02/18 00:14:21;;;;;;;1.08;0.70;;;21.70;49.70;;;;;;10357936;28;20381;-59
2024/02/18 00:19:23;;;;;;;1.25;0.95;;;21.60;49.60;;;;;;10357487;28;20543;-57
2024/02/18 00:24:25;;;;;;;0.88;0.80;;;21.70;49.60;;;;;;10353922;28;20133;-57
2024/02/18 00:29:27;;;;;;;1.83;0.68;;;21.60;49.90;;;;;;10359245;28;20128;-58
2024/02/18 00:34:30;;;;;;;0.80;0.70;;;21.60;49.70;;;;;;10361809;28;20053;-56
2024/02/18 00:39:33;;;;;;;1.02;0.70;;;21.50;49.80;;;;;;10360041;28;20053;-59
2024/02/18 00:44:34;;;;;;;1.70;0.63;;;21.50;49.90;;;;;;10359925;28;20128;-56
2024/02/18 00:49:36;;;;;;;0.80;0.65;;;21.50;49.60;;;;;;10359066;28;20514;-57
2024/02/18 00:54:39;;;;;;;1.15;0.90;;;21.50;49.60;;;;;;10353143;28;20395;-59
2024/02/18 00:59:40;;;;;;;0.98;0.82;;;21.40;49.60;;;;;;10335516;28;20049;-59
2024/02/18 01:04:42;;;;;;;2.03;1.02;;;21.40;49.60;;;;;;10357028;28;20050;-57
2024/02/18 01:09:46;;;;;;;1.00;0.75;;;21.30;50.00;;;;;;10354389;28;20503;-59
2024/02/18 01:14:47;;;;;;;1.13;0.70;;;21.30;50.00;;;;;;10354395;28;20061;-57
2024/02/18 01:19:52;;;;;;;1.10;0.90;;;21.20;49.80;;;;;;10357115;28;20129;-58
2024/02/18 01:24:55;;;;;;;0.88;0.82;;;21.20;49.90;;;;;;10348720;28;20048;-58
2024/02/18 01:29:57;;;;;;;1.30;0.77;;;21.30;50.10;;;;;;10347175;28;20042;-59
2024/02/18 01:34:59;;;;;;;1.20;0.80;;;21.20;49.80;;;;;;10351207;28;20041;-59
2024/02/18 01:40:02;;;;;;;0.90;0.77;;;21.20;49.80;;;;;;10348065;28;20069;-55
2024/02/18 01:45:05;;;;;;;0.93;0.70;;;21.20;49.80;;;;;;10350265;28;20039;-59
2024/02/18 01:50:08;;;;;;;1.42;0.90;;;21.20;49.70;;;;;;10353527;28;20042;-58
2024/02/18 01:55:11;;;;;;;1.38;0.88;;;21.00;50.00;;;;;;10357893;28;20054;-56
2024/02/18 02:00:15;;;;;;;0.88;0.75;;;20.90;50.10;;;;;;10349687;28;20133;-54
2024/02/18 02:05:19;;;;;;;1.35;0.80;;;21.00;49.80;;;;;;10344318;28;20045;-56
2024/02/18 02:10:22;;;;;;;1.50;0.93;;;20.90;49.90;;;;;;10343107;28;20129;-58
2024/02/18 02:15:23;;;;;;;1.02;0.70;;;20.90;49.80;;;;;;10349327;28;20101;-57
2024/02/18 02:20:26;;;;;;;1.10;0.80;;;20.90;50.10;;;;;;10357927;28;20559;-55
2024/02/18 02:25:29;;;;;;;0.90;0.70;;;20.90;49.90;;;;;;10362032;28;20603;-55
2024/02/18 02:30:32;;;;;;;0.90;0.73;;;20.90;49.90;;;;;;10359740;28;20057;-57
2024/02/18 02:35:33;;;;;;;0.98;0.70;;;20.80;50.10;;;;;;10358382;28;20089;-60
2024/02/18 02:40:35;;;;;;;0.90;0.63;;;20.80;49.80;;;;;;10355432;28;20054;-57
2024/02/18 02:45:38;;;;;;;1.15;0.68;;;20.70;49.90;;;;;;10357200;28;20129;-59
2024/02/18 02:50:39;;;;;;;1.13;0.80;;;20.80;49.90;;;;;;10358276;28;20476;-58
2024/02/18 02:55:41;;;;;;;1.60;0.60;;;20.80;49.80;;;;;;10360562;28;20066;-60
2024/02/18 03:00:44;;;;;;;0.75;0.60;;;20.70;49.80;;;;;;10360286;28;20144;-58
2024/02/18 03:05:46;;;;;;;1.02;0.80;;;20.70;49.80;;;;;;10363921;28;20113;-60
2024/02/18 03:10:47;;;;;;;1.05;0.70;;;20.70;49.90;;;;;;10359554;28;20579;-58
2024/02/18 03:15:50;;;;;;;0.90;0.75;;;20.70;49.70;;;;;;10357097;28;20077;-58
2024/02/18 03:20:52;;;;;;;1.00;0.80;;;20.60;49.90;;;;;;10359387;28;20128;-56
2024/02/18 03:25:55;;;;;;;1.23;0.70;;;20.50;49.90;;;;;;10356494;28;20690;-60
2024/02/18 03:30:58;;;;;;;2.15;0.70;;;20.50;49.80;;;;;;10364600;28;20045;-60
2024/02/18 03:36:01;;;;;;;0.80;0.70;;;20.50;49.80;;;;;;10362086;28;20542;-60
2024/02/18 03:41:05;;;;;;;0.75;0.60;;;20.50;49.90;;;;;;10359284;28;20046;-57
2024/02/18 03:46:08;;;;;;;1.05;0.70;;;20.50;49.90;;;;;;10352563;28;20045;-58
2024/02/18 03:51:10;;;;;;;1.05;0.70;;;20.50;49.90;;;;;;10351270;28;20523;-58
2024/02/18 03:56:12;;;;;;;0.60;0.60;;;20.40;50.00;;;;;;10356125;28;20141;-59
2024/02/18 04:01:15;;;;;;;0.85;0.75;;;20.40;49.90;;;;;;10361303;28;20080;-58
2024/02/18 04:06:16;;;;;;;0.95;0.75;;;20.50;49.50;;;;;;10361354;28;20042;-59
2024/02/18 04:11:18;;;;;;;0.80;0.70;;;20.10;50.80;;;;;;10360514;28;20129;-59
2024/02/18 04:16:21;;;;;;;0.90;0.70;;;19.80;51.50;;;;;;10360069;28;20140;-57
2024/02/18 04:21:23;;;;;;;0.95;0.70;;;20.30;51.10;;;;;;10362188;28;20048;-59
2024/02/18 04:26:24;;;;;;;0.85;0.68;;;20.80;50.50;;;;;;10357500;28;20475;-58
2024/02/18 04:31:27;;;;;;;1.05;0.70;;;20.90;50.10;;;;;;10362343;28;20160;-61
2024/02/18 04:36:29;;;;;;;0.90;0.70;;;21.10;49.60;;;;;;10353172;28;20498;-57
2024/02/18 04:41:31;;;;;;;1.33;0.70;;;21.30;48.70;;;;;;10348160;28;20148;-58
2024/02/18 04:46:34;;;;;;;0.90;0.77;;;21.40;48.30;;;;;;10352517;28;20052;-57
2024/02/18 04:51:36;;;;;;;0.82;0.68;;;21.30;48.50;;;;;;10357308;28;20547;-55
2024/02/18 04:56:38;;;;;;;0.50;0.50;;;21.20;48.50;;;;;;10354083;28;20056;-58
2024/02/18 05:01:41;;;;;;;0.70;0.60;;;21.30;48.50;;;;;;10351976;28;20531;-57
2024/02/18 05:06:46;;;;;;;1.08;0.70;;;21.40;48.40;;;;;;10350526;28;20132;-57
2024/02/18 05:11:48;;;;;;;1.35;0.80;;;21.60;47.80;;;;;;10351674;28;20137;-57
2024/02/18 05:16:51;;;;;;;0.98;0.77;;;21.40;48.00;;;;;;10354229;28;20142;-59
2024/02/18 05:21:53;;;;;;;0.70;0.60;;;21.50;48.10;;;;;;10354322;28;20416;-58
2024/02/18 05:26:55;;;;;;;1.02;0.73;;;21.50;48.10;;;;;;10359266;28;20052;-59
2024/02/18 05:31:58;;;;;;;0.68;0.68;;;21.50;48.40;;;;;;10356144;28;20129;-59
2024/02/18 05:36:59;;;;;;;0.93;0.70;;;21.60;48.50;;;;;;10358690;28;20610;-58
2024/02/18 05:42:01;;;;;;;0.60;0.60;;;21.50;48.40;;;;;;10355955;28;20128;-58
2024/02/18 05:47:04;;;;;;;0.75;0.68;;;21.60;48.20;;;;;;10352899;28;20072;-59
2024/02/18 05:52:06;;;;;;;1.05;0.70;;;21.40;48.70;;;;;;10348655;28;20133;-58
2024/02/18 05:57:08;;;;;;;0.93;0.60;;;21.50;48.80;;;;;;10343208;28;20412;-57
2024/02/18 06:02:11;;;;;;;0.80;0.60;;;21.60;48.60;;;;;;10347568;28;20137;-57
2024/02/18 06:07:12;;;;;;;0.98;0.70;;;21.60;48.70;;;;;;10350380;28;20129;-56
2024/02/18 06:12:14;;;;;;;0.80;0.60;;;21.60;48.70;;;;;;10351445;28;20636;-57
2024/02/18 06:17:18;;;;;;;0.80;0.68;;;21.50;49.00;;;;;;10353018;28;20038;-56
2024/02/18 06:22:20;;;;;;;0.80;0.70;;;21.60;49.00;;;;;;10347399;28;20042;-58
2024/02/18 06:27:21;;;;;;;0.82;0.70;;;21.70;48.70;;;;;;10356324;28;20046;-58
2024/02/18 06:32:24;;;;;;;1.10;0.80;;;21.70;48.50;;;;;;10356904;28;20084;-57
2024/02/18 06:37:26;;;;;;;0.60;0.60;;;21.80;48.60;;;;;;10349428;28;20125;-58
2024/02/18 06:42:27;;;;;;;1.17;0.93;;;21.70;48.60;;;;;;10353656;28;20038;-58
2024/02/18 06:47:31;;;;;;;0.80;0.70;;;21.70;48.40;;;;;;10353907;28;20124;-56
2024/02/18 06:52:32;;;;;;;0.95;0.60;;;21.80;48.30;;;;;;10356294;28;20054;-58
2024/02/18 06:57:34;;;;;;;1.05;0.70;;;21.80;48.50;;;;;;10348605;28;20341;-55
2024/02/18 07:02:38;;;;;;;1.13;0.68;;;21.80;48.50;;;;;;10345015;28;20149;-56
2024/02/18 07:07:39;;;;;;;1.13;0.70;;;21.80;48.70;;;;;;10349312;28;20071;-51
2024/02/18 07:12:41;;;;;;;0.73;0.70;;;21.70;48.80;;;;;;10346826;28;20132;-57
2024/02/18 07:17:44;;;;;;;1.02;0.68;;;21.90;48.50;;;;;;10345456;28;20142;-53
2024/02/18 07:22:45;;;;;;;1.17;0.80;;;22.00;48.30;;;;;;10354687;28;20123;-52
2024/02/18 07:27:47;;;;;;;0.90;0.77;;;21.80;48.60;;;;;;10353258;28;20078;-56
2024/02/18 07:32:50;;;;;;;0.90;0.70;;;21.80;48.80;;;;;;10358669;28;20134;-56
2024/02/18 07:37:52;;;;;;;0.93;0.70;;;21.80;48.60;;;;;;10353932;28;20129;-57
2024/02/18 07:42:53;;;;;;;0.50;0.50;;;21.80;48.70;;;;;;10364690;28;20595;-55
2024/02/18 07:47:56;;;;;;;0.95;0.77;;;21.90;48.40;;;;;;10356133;28;20057;-53
2024/02/18 07:52:58;;;;;;;0.70;0.70;;;22.00;48.40;;;;;;10356656;28;20050;-51
2024/02/18 07:58:00;;;;;;;0.75;0.73;;;22.00;48.30;;;;;;10359312;28;20132;-58
2024/02/18 08:03:03;;;;;;;0.85;0.70;;;21.80;48.80;;;;;;10361198;28;20132;-55
2024/02/18 08:08:05;;;;;;;1.20;0.70;;;21.90;48.70;;;;;;10357378;28;20162;-56
2024/02/18 08:13:09;;;;;;;0.63;0.60;;;22.10;48.30;;;;;;10353531;28;20096;-56
2024/02/18 08:18:12;;;;;;;0.60;0.60;;;22.00;48.40;;;;;;10348642;28;20050;-51
2024/02/18 08:23:13;;;;;;;1.20;0.70;;;22.00;48.40;;;;;;10349777;28;20156;-55
2024/02/18 08:28:18;;;;;;;0.80;0.60;;;21.90;48.60;;;;;;10350897;28;20136;-56
2024/02/18 08:33:21;;;;;;;0.95;0.82;;;22.00;48.60;;;;;;10353004;28;20134;-55
2024/02/18 08:38:22;;;;;;;0.70;0.68;;;22.10;48.40;;;;;;10352590;28;20507;-51
2024/02/18 08:43:24;;;;;;;0.65;0.50;;;22.10;48.40;;;;;;10356723;28;20137;-56
2024/02/18 08:48:27;;;;;;;0.85;0.70;;;22.00;48.50;;;;;;10355174;28;20444;-53
2024/02/18 08:53:28;;;;;;;1.13;0.70;;;22.00;48.70;;;;;;10362016;28;20049;-55
2024/02/18 08:58:31;;;;;;;1.00;0.90;;;21.90;48.70;;;;;;10356725;28;20137;-51
2024/02/18 09:03:35;;;;;;;1.38;0.80;;;22.20;48.40;;;;;;10358946;28;20092;-55
2024/02/18 09:08:37;;;;;;;0.70;0.70;;;22.20;48.40;;;;;;10357495;28;20129;-56
2024/02/18 09:13:38;;;;;;;0.98;0.80;;;22.20;48.30;;;;;;10359596;28;20058;-51
2024/02/18 09:18:41;;;;;;;0.70;0.70;;;22.30;48.10;;;;;;10358637;28;20132;-53
2024/02/18 09:23:43;;;;;;;0.82;0.70;;;22.30;48.20;;;;;;10353511;28;20077;-55
2024/02/18 09:28:44;;;;;;;0.98;0.70;;;22.30;48.10;;;;;;10348665;28;20584;-50
2024/02/18 09:33:47;;;;;;;0.77;0.68;;;22.30;48.20;;;;;;10354012;28;20129;-55
2024/02/18 09:38:51;;;;;;;1.02;0.50;;;22.40;48.20;;;;;;10353858;28;20053;-57
2024/02/18 09:43:54;;;;;;;0.80;0.73;;;22.40;48.20;;;;;;10356318;28;20054;-51
2024/02/18 09:48:57;;;;;;;0.75;0.70;;;22.40;48.20;;;;;;10349085;28;20116;-56
2024/02/18 09:53:59;;;;;;;0.80;0.70;;;22.40;48.10;;;;;;10349646;28;20145;-57
2024/02/18 09:59:00;;;;;;;0.85;0.70;;;22.50;48.20;;;;;;10354116;28;20133;-55
2024/02/18 10:04:04;;;;;;;0.65;0.60;;;22.50;48.20;;;;;;10352798;28;20137;-52
2024/02/18 10:09:05;;;;;;;0.80;0.70;;;22.60;48.00;;;;;;10356018;28;20153;-55
2024/02/18 10:14:07;;;;;;;0.60;0.60;;;22.50;48.10;;;;;;10357142;28;20754;-51
2024/02/18 10:19:10;;;;;;;0.98;0.80;;;22.60;48.00;;;;;;10357678;28;20427;-54
2024/02/18 10:24:12;;;;;;;0.60;0.60;;;22.60;48.10;;;;;;10359301;28;20070;-56
2024/02/18 10:29:15;;;;;;;0.60;0.60;;;22.70;48.10;;;;;;10352524;28;20129;-58
2024/02/18 10:34:19;;;;;;;0.80;0.60;;;22.70;47.90;;;;;;10354374;28;20052;-56
2024/02/18 10:39:21;;;;;;;0.63;0.63;;;22.70;48.00;;;;;;10355162;28;20132;-57
2024/02/18 10:44:22;;;;;;;0.60;0.60;;;22.70;48.10;;;;;;10364999;28;20133;-55
2024/02/18 10:49:28;;;;;;;0.70;0.70;;;22.80;48.00;;;;;;10365542;28;20133;-53
2024/02/18 10:54:34;;;;;;;0.60;0.50;;;22.60;48.20;;;;;;10364250;28;20127;-56
2024/02/18 10:59:39;;;;;;;0.60;0.60;;;22.70;48.20;;;;;;10358822;28;20064;-57
2024/02/18 11:04:42;;;;;;;0.80;0.80;;;22.70;48.20;;;;;;10356244;28;20053;-53
2024/02/18 11:09:44;;;;;;;0.60;0.60;;;22.70;48.20;;;;;;10353743;28;20515;-59
2024/02/18 11:14:45;;;;;;;0.70;0.70;;;22.50;48.30;;;;;;10357232;28;20140;-58
2024/02/18 11:19:48;;;;;;;0.77;0.60;;;22.60;48.40;;;;;;10360920;28;20070;-52
2024/02/18 11:24:52;;;;;;;1.15;0.70;;;22.60;48.00;;;;;;10360247;28;20070;-55
2024/02/18 11:29:54;;;;;;;0.57;0.57;;;22.60;47.80;;;;;;10368605;28;20046;-54
2024/02/18 11:34:57;;;;;;;0.65;0.60;;;22.80;47.90;;;;;;10361036;28;20507;-57
2024/02/18 11:39:59;;;;;;;0.57;0.57;;;22.80;47.50;;;;;;10352880;28;20137;-54
2024/02/18 11:45:06;;;;;;;0.70;0.65;;;22.90;47.40;;;;;;10352157;28;20052;-51
2024/02/18 11:50:09;;;;;;;0.93;0.73;;;22.90;47.30;;;;;;10353469;28;20053;-57
2024/02/18 11:55:17;;;;;;;0.60;0.60;;;22.90;47.20;;;;;;10364925;28;20128;-55
2024/02/18 12:00:20;;;;;;;1.00;0.70;;;22.90;47.10;;;;;;10362107;28;20125;-54
2024/02/18 12:05:24;;;;;;;0.70;0.70;;;22.80;47.20;;;;;;10362282;28;20089;-55
2024/02/18 12:10:27;;;;;;;0.70;0.70;;;22.80;47.30;;;;;;10358479;28;20100;-56
2024/02/18 12:15:29;;;;;;;0.70;0.60;;;22.70;47.30;;;;;;10358028;28;20065;-59
2024/02/18 12:20:33;;;;;;;0.70;0.60;;;22.70;47.30;;;;;;10353207;28;20056;-59
2024/02/18 12:25:38;;;;;;;0.60;0.60;;;22.70;47.30;;;;;;10351208;28;20046;-59
2024/02/18 12:30:40;;;;;;;0.50;0.50;;;22.70;47.30;;;;;;10353368;28;20117;-57
2024/02/18 12:35:43;;;;;;;0.57;0.57;;;22.60;47.40;;;;;;10360624;28;20169;-57
2024/02/18 12:40:45;;;;;;;0.70;0.60;;;22.50;47.50;;;;;;10362700;28;20140;-60
2024/02/18 12:45:47;;;;;;;0.73;0.68;;;22.50;47.50;;;;;;10360816;28;20137;-58
2024/02/18 12:51:07;;;;;;;0.68;0.50;;;22.50;47.60;;;;;;10355291;28;20560;-57
2024/02/18 12:56:09;;;;;;;0.98;0.70;;;22.50;47.40;;;;;;10351916;28;20132;-57
2024/02/18 13:01:11;;;;;;;0.52;0.52;;;22.50;47.70;;;;;;10347752;28;20053;-59
2024/02/18 13:06:17;;;;;;;0.70;0.70;;;22.40;47.40;;;;;;10354766;28;20056;-59
2024/02/18 13:11:18;;;;;;;0.77;0.60;;;22.50;47.50;;;;;;10361291;28;20046;-58
2024/02/18 13:16:20;;;;;;;0.50;0.50;;;22.50;47.30;;;;;;10358379;28;20077;-58
2024/02/18 13:21:25;;;;;;;0.60;0.60;;;22.40;47.70;;;;;;10356276;28;20525;-57
2024/02/18 13:26:27;;;;;;;0.50;0.50;;;22.40;47.40;;;;;;10352282;28;20042;-57
2024/02/18 13:31:28;;;;;;;0.85;0.70;;;22.40;47.40;;;;;;10349053;28;20133;-58
2024/02/18 13:36:31;;;;;;;0.52;0.52;;;22.40;47.40;;;;;;10353658;28;20061;-58
2024/02/18 13:41:33;;;;;;;0.50;0.50;;;22.30;47.70;;;;;;10359147;28;20145;-58
2024/02/18 13:46:35;;;;;;;0.50;0.45;;;22.30;47.70;;;;;;10353974;28;20140;-58
2024/02/18 13:51:38;;;;;;;0.45;0.45;;;22.40;47.30;;;;;;10357119;28;20132;-57
2024/02/18 13:56:41;;;;;;;0.50;0.50;;;22.20;47.60;;;;;;10356279;28;20050;-58
2024/02/18 14:01:43;;;;;;;0.55;0.55;;;22.10;47.80;;;;;;10357698;28;20075;-58
2024/02/18 14:06:46;;;;;;;0.60;0.60;;;22.20;47.60;;;;;;10355066;28;20085;-59
2024/02/18 14:11:47;;;;;;;0.60;0.52;;;22.00;48.10;;;;;;10354567;28;20145;-59
2024/02/18 14:16:51;;;;;;;0.50;0.45;;;22.00;48.20;;;;;;10348132;28;20141;-59
2024/02/18 14:21:54;;;;;;;0.50;0.50;;;22.10;48.00;;;;;;10346934;28;20069;-55
2024/02/18 14:26:57;;;;;;;0.60;0.60;;;22.00;48.10;;;;;;10354474;28;20136;-58
2024/02/18 14:31:59;;;;;;;0.88;0.57;;;21.90;48.20;;;;;;10353623;28;20042;-58
2024/02/18 14:37:02;;;;;;;0.52;0.52;;;21.90;48.30;;;;;;10351558;28;20128;-56
2024/02/18 14:42:04;;;;;;;0.60;0.60;;;21.90;48.50;;;;;;10350591;28;20125;-58
2024/02/18 14:47:06;;;;;;;0.75;0.60;;;21.80;48.50;;;;;;10348439;28;20133;-56
2024/02/18 14:52:09;;;;;;;0.50;0.50;;;21.80;48.70;;;;;;10356999;28;20038;-57
2024/02/18 14:57:11;;;;;;;0.60;0.57;;;22.00;48.30;;;;;;10356589;28;20742;-57
2024/02/18 15:02:13;;;;;;;0.50;0.50;;;22.00;48.30;;;;;;10357818;28;20152;-59
2024/02/18 15:07:16;;;;;;;0.50;0.50;;;22.00;48.40;;;;;;10352571;28;20042;-58
2024/02/18 15:12:18;;;;;;;0.50;0.50;;;22.00;48.40;;;;;;10355119;28;20583;-56
2024/02/18 15:17:20;;;;;;;0.63;0.60;;;22.00;48.40;;;;;;10355808;28;20046;-55
2024/02/18 15:22:25;;;;;;;0.60;0.60;;;21.90;48.50;;;;;;10354196;28;20046;-56
2024/02/18 15:27:26;;;;;;;0.60;0.50;;;22.00;48.40;;;;;;10354720;28;20054;-59
2024/02/18 15:32:28;;;;;;;0.50;0.50;;;22.10;48.30;;;;;;10352162;28;20129;-59
2024/02/18 15:37:31;;;;;;;0.43;0.43;;;22.10;48.50;;;;;;10348919;28;20046;-54
2024/02/18 15:42:33;;;;;;;0.50;0.50;;;22.10;48.40;;;;;;10354533;28;20052;-57
2024/02/18 15:47:36;;;;;;;0.60;0.60;;;22.10;48.30;;;;;;10353690;28;20050;-58
2024/02/18 15:52:39;;;;;;;0.50;0.47;;;22.10;48.30;;;;;;10358380;28;20065;-58
2024/02/18 15:57:40;;;;;;;0.50;0.50;;;22.00;48.50;;;;;;10356689;28;20145;-59
2024/02/18 16:02:42;;;;;;;0.43;0.40;;;21.90;48.70;;;;;;10358612;28;20177;-59
2024/02/18 16:07:45;;;;;;;0.50;0.50;;;21.80;48.70;;;;;;10361352;28;20218;-59
2024/02/18 16:12:46;;;;;;;0.50;0.50;;;21.80;48.90;;;;;;10353943;28;20060;-55
2024/02/18 16:17:49;;;;;;;0.40;0.40;;;21.60;49.00;;;;;;10353131;28;20134;-59
2024/02/18 16:22:52;;;;;;;0.50;0.50;;;21.60;49.00;;;;;;10355328;28;20050;-59
2024/02/18 16:27:53;;;;;;;0.50;0.50;;;21.60;48.90;;;;;;10359265;28;20519;-57
2024/02/18 16:32:55;;;;;;;0.75;0.60;;;21.50;49.00;;;;;;10359676;28;20480;-57
2024/02/18 16:37:58;;;;;;;0.60;0.60;;;21.70;48.50;;;;;;10354437;28;20143;-56
2024/02/18 16:43:00;;;;;;;0.40;0.40;;;21.80;48.40;;;;;;10351190;28;20158;-57
2024/02/18 16:48:01;;;;;;;0.43;0.43;;;21.80;48.60;;;;;;10345056;28;20133;-59
2024/02/18 16:53:05;;;;;;;0.50;0.50;;;21.80;48.50;;;;;;10344656;28;20061;-59
2024/02/18 16:58:07;;;;;;;0.50;0.50;;;21.80;48.50;;;;;;10346431;28;21483;-58
2024/02/18 17:03:08;;;;;;;0.55;0.55;;;21.80;48.40;;;;;;10350091;28;20096;-57
2024/02/18 17:08:11;;;;;;;0.50;0.50;;;21.80;48.40;;;;;;10352666;28;20069;-58
2024/02/18 17:13:13;;;;;;;0.45;0.45;;;21.90;48.40;;;;;;10353914;28;20568;-58
2024/02/18 17:18:14;;;;;;;0.65;0.50;;;21.80;48.40;;;;;;10360655;28;20069;-59
2024/02/18 17:23:17;;;;;;;0.40;0.40;;;21.90;48.40;;;;;;10357039;28;20129;-59
2024/02/18 17:28:19;;;;;;;0.40;0.40;;;21.90;48.30;;;;;;10349007;28;20483;-59
2024/02/18 17:33:21;;;;;;;0.40;0.40;;;21.80;48.30;;;;;;10358050;28;20056;-58
2024/02/18 17:38:24;;;;;;;0.40;0.40;;;21.90;48.30;;;;;;10357781;28;20637;-59
2024/02/18 17:43:26;;;;;;;0.45;0.40;;;21.80;48.20;;;;;;10356254;28;20057;-56
2024/02/18 17:48:28;;;;;;;0.40;0.40;;;21.70;48.40;;;;;;10350547;28;20542;-59
2024/02/18 17:53:31;;;;;;;0.50;0.50;;;21.70;48.50;;;;;;10348419;28;20101;-57
2024/02/18 17:58:32;;;;;;;0.60;0.60;;;21.60;48.70;;;;;;10346002;28;20052;-59
2024/02/18 18:03:34;;;;;;;0.50;0.50;;;21.60;48.50;;;;;;10345108;28;20141;-56
2024/02/18 18:08:37;;;;;;;0.40;0.40;;;21.50;48.60;;;;;;10348601;28;20439;-59
2024/02/18 18:13:39;;;;;;;0.40;0.40;;;21.60;48.50;;;;;;10348005;28;20054;-59
2024/02/18 18:18:40;;;;;;;0.50;0.50;;;21.60;48.60;;;;;;10349960;28;20385;-58
2024/02/18 18:23:43;;;;;;;0.50;0.40;;;21.60;49.00;;;;;;10353225;28;20144;-59
2024/02/18 18:28:45;;;;;;;0.40;0.40;;;21.70;48.10;;;;;;10357560;28;20144;-58
2024/02/18 18:33:48;;;;;;;0.50;0.50;;;21.70;48.30;;;;;;10356900;28;20143;-58
2024/02/18 18:38:51;;;;;;;1.38;0.40;;;21.70;48.20;;;;;;10353767;28;20050;-60
2024/02/18 18:43:53;;;;;;;0.60;0.50;;;21.70;48.30;;;;;;10355848;28;20058;-58
2024/02/18 18:48:54;;;;;;;0.32;0.32;;;21.60;48.40;;;;;;10355566;28;20478;-57
2024/02/18 18:53:58;;;;;;;0.43;0.43;;;21.70;48.20;;;;;;10356501;28;20161;-58
2024/02/18 18:59:00;;;;;;;0.50;0.50;;;21.70;48.30;;;;;;10354192;28;20140;-57
2024/02/18 19:04:01;;;;;;;0.43;0.43;;;21.70;48.10;;;;;;10355001;28;20152;-58
2024/02/18 19:09:04;;;;;;;0.40;0.40;;;21.80;48.10;;;;;;10354348;28;20145;-58
2024/02/18 19:14:06;;;;;;;0.40;0.40;;;21.80;47.90;;;;;;10355044;28;20121;-53
2024/02/18 19:19:08;;;;;;;0.40;0.40;;;21.70;48.20;;;;;;10358725;28;20555;-54
2024/02/18 19:24:11;;;;;;;0.45;0.45;;;21.70;48.10;;;;;;10356405;28;20132;-53
2024/02/18 19:29:15;;;;;;;0.50;0.50;;;21.60;48.30;;;;;;10354322;28;20066;-60
2024/02/18 19:34:17;;;;;;;0.50;0.50;;;21.40;48.50;;;;;;10357945;28;20444;-51
2024/02/18 19:39:20;;;;;;;0.40;0.40;;;21.40;48.50;;;;;;10357969;28;20132;-57
2024/02/18 19:44:22;;;;;;;0.30;0.30;;;21.40;48.50;;;;;;10365083;28;20046;-55
2024/02/18 19:49:23;;;;;;;0.47;0.47;;;21.50;48.30;;;;;;10363104;28;20133;-58
2024/02/18 19:54:28;;;;;;;0.30;0.30;;;21.40;48.40;;;;;;10355019;28;20045;-56
2024/02/18 19:59:30;;;;;;;0.40;0.40;;;21.50;48.20;;;;;;10353813;28;20049;-53
2024/02/18 20:04:31;;;;;;;0.30;0.30;;;21.50;48.10;;;;;;10354805;28;20149;-53
2024/02/18 20:09:35;;;;;;;0.40;0.40;;;21.50;48.20;;;;;;10351322;28;20144;-55
2024/02/18 20:14:39;;;;;;;0.38;0.35;;;21.50;48.30;;;;;;10356166;28;20084;-56
2024/02/18 20:19:42;;;;;;;0.40;0.40;;;21.30;48.40;;;;;;10350675;28;20061;-55
2024/02/18 20:24:47;;;;;;;0.40;0.40;;;21.30;48.40;;;;;;10357327;28;20104;-54
2024/02/18 20:29:48;;;;;;;0.40;0.40;;;21.50;48.00;;;;;;10354534;28;20053;-55
2024/02/18 20:34:50;;;;;;;0.40;0.38;;;21.50;48.10;;;;;;10352623;28;20481;-55
2024/02/18 20:39:55;;;;;;;0.40;0.40;;;21.60;47.60;;;;;;10354418;28;20384;-53
2024/02/18 20:44:56;;;;;;;0.50;0.50;;;21.80;47.10;;;;;;10351175;28;20049;-54
2024/02/18 20:49:58;;;;;;;0.50;0.50;;;21.60;47.30;;;;;;10349413;28;20133;-51
2024/02/18 20:55:02;;;;;;;0.40;0.40;;;21.70;47.00;;;;;;10358491;28;20548;-57
2024/02/18 21:00:07;;;;;;;0.40;0.40;;;21.70;47.00;;;;;;10355376;28;20109;-55
2024/02/18 21:05:08;;;;;;;0.40;0.40;;;21.70;46.90;;;;;;10359064;28;20638;-57
2024/02/18 21:10:18;;;;;;;0.40;0.40;;;21.70;46.70;;;;;;10356139;28;20124;-54
2024/02/18 21:15:19;;;;;;;0.30;0.30;;;21.70;46.60;;;;;;10348672;28;20049;-52
2024/02/18 21:20:22;;;;;;;0.35;0.35;;;21.70;46.60;;;;;;10348510;28;20093;-55
2024/02/18 21:25:27;;;;;;;0.40;0.40;;;21.90;46.30;;;;;;10342346;28;20441;-54
2024/02/18 21:30:29;;;;;;;0.30;0.30;;;21.90;46.10;;;;;;10344702;28;20065;-55
2024/02/18 21:35:30;;;;;;;0.40;0.40;;;21.70;46.50;;;;;;10353847;28;20162;-54
2024/02/18 21:40:33;;;;;;;0.38;0.38;;;21.50;46.80;;;;;;10356632;28;20046;-56
2024/02/18 21:45:35;;;;;;;0.30;0.30;;;21.60;46.70;;;;;;10352705;28;20396;-58
2024/02/18 21:50:37;;;;;;;0.40;0.30;;;21.70;46.40;;;;;;10352238;28;20478;-55
2024/02/18 21:55:39;;;;;;;0.43;0.43;;;21.80;46.10;;;;;;10354324;28;20128;-51
2024/02/18 22:00:41;;;;;;;0.40;0.40;;;21.70;46.20;;;;;;10357267;28;20124;-55
2024/02/18 22:05:43;;;;;;;0.30;0.30;;;21.80;46.10;;;;;;10361422;28;20129;-52
2024/02/18 22:10:46;;;;;;;0.47;0.47;;;21.80;45.90;;;;;;10355032;28;20081;-55
2024/02/18 22:15:48;;;;;;;0.50;0.40;;;21.90;45.70;;;;;;10355855;28;20540;-57
2024/02/18 22:20:49;;;;;;;0.40;0.40;;;21.80;45.80;;;;;;10360412;28;20091;-54
2024/02/18 22:25:52;;;;;;;0.40;0.40;;;21.80;45.80;;;;;;10355601;28;20081;-56
2024/02/18 22:30:54;;;;;;;0.50;0.50;;;21.60;46.10;;;;;;10351117;28;20132;-58
2024/02/18 22:35:55;;;;;;;0.40;0.40;;;21.80;45.90;;;;;;10348318;28;20141;-55
2024/02/18 22:40:58;;;;;;;0.80;0.40;;;21.70;45.70;;;;;;10358390;28;20056;-52
2024/02/18 22:46:00;;;;;;;0.40;0.40;;;21.80;45.80;;;;;;10362821;28;20039;-51
2024/02/18 22:51:01;;;;;;;0.40;0.40;;;21.40;46.40;;;;;;10367409;28;20538;-53
2024/02/18 22:56:05;;;;;;;0.40;0.40;;;21.60;46.20;;;;;;10363484;28;20361;-55
2024/02/18 23:01:07;;;;;;;0.30;0.30;;;21.40;46.70;;;;;;10357414;28;20145;-56
2024/02/18 23:06:09;;;;;;;0.40;0.40;;;21.30;46.70;;;;;;10358383;28;20042;-56
2024/02/18 23:11:12;;;;;;;0.35;0.35;;;21.30;46.70;;;;;;10359506;28;20050;-57
2024/02/18 23:16:14;;;;;;;0.30;0.30;;;21.40;46.50;;;;;;10361104;28;20562;-55
2024/02/18 23:21:16;;;;;;;0.40;0.40;;;21.30;46.50;;;;;;10360751;28;20049;-56
2024/02/18 23:26:19;;;;;;;0.40;0.40;;;21.40;46.30;;;;;;10359811;28;20046;-52
2024/02/18 23:31:21;;;;;;;0.32;0.32;;;21.30;46.50;;;;;;10360765;28;20065;-55
2024/02/18 23:36:23;;;;;;;0.40;0.40;;;21.20;46.60;;;;;;10361262;28;20053;-55
2024/02/18 23:41:26;;;;;;;0.35;0.35;;;21.30;46.50;;;;;;10358556;28;20123;-59
2024/02/18 23:46:27;;;;;;;0.40;0.40;;;21.30;46.50;;;;;;10356211;28;20132;-55
2024/02/18 23:51:29;;;;;;;0.40;0.40;;;21.30;46.50;;;;;;10354671;28;20054;-54
2024/02/18 23:56:50;;;;;;;0.50;0.50;;;21.20;46.50;;;;;;10348267;28;20125;-56
